createdAt,value
2022-12-27T00:00:48.595Z,5.70
2022-12-27T00:03:15.050Z,4.22
2022-12-27T00:05:45.528Z,8.77
2022-12-27T00:08:12.543Z,6.18
2022-12-27T00:10:39.520Z,6.25
2022-12-27T00:13:06.784Z,5.70
2022-12-27T00:15:33.921Z,2.95
2022-12-27T00:18:00.221Z,6.43
2022-12-27T00:20:26.567Z,6.55
2022-12-27T00:22:52.922Z,7.68
2022-12-27T00:25:19.260Z,2.67
2022-12-27T00:27:45.645Z,3.53
2022-12-27T00:30:12.355Z,7.57
2022-12-27T00:32:38.893Z,4.65
2022-12-27T00:35:05.508Z,6.53
2022-12-27T00:37:31.860Z,6.47
2022-12-27T00:39:59.439Z,9.20
2022-12-27T00:42:25.703Z,6.30
2022-12-27T00:44:52.049Z,10.60
2022-12-27T00:47:18.337Z,5.38
2022-12-27T00:49:44.632Z,4.57
2022-12-27T00:52:10.945Z,4.07
2022-12-27T00:54:37.302Z,8.38
2022-12-27T00:57:03.638Z,7.45
2022-12-27T00:59:29.992Z,5.90
2022-12-27T01:01:56.416Z,5.18
2022-12-27T01:04:23.923Z,6.43
2022-12-27T01:06:50.202Z,6.93
2022-12-27T01:09:16.465Z,8.55
2022-12-27T01:11:42.821Z,9.43
2022-12-27T01:14:10.048Z,12.93
2022-12-27T01:16:36.401Z,9.80
2022-12-27T01:19:02.803Z,8.25
2022-12-27T01:21:30.764Z,7.50
2022-12-27T01:23:57.785Z,8.07
2022-12-27T01:26:24.602Z,9.38
2022-12-27T01:28:51.443Z,9.02
2022-12-27T01:31:19.194Z,7.80
2022-12-27T01:33:45.739Z,7.97
2022-12-27T01:36:14.272Z,12.32
2022-12-27T01:38:42.729Z,3.92
2022-12-27T01:41:38.516Z,8.73
2022-12-27T01:44:23.755Z,5.47
2022-12-27T01:46:50.214Z,5.28
2022-12-27T01:49:16.587Z,7.43
2022-12-27T01:51:42.920Z,9.10
2022-12-27T01:54:09.273Z,7.55
2022-12-27T01:56:35.602Z,4.72
2022-12-27T01:59:04.837Z,9.18
2022-12-27T02:01:33.927Z,5.22
2022-12-27T02:04:04.138Z,9.07
2022-12-27T02:06:31.564Z,4.60
2022-12-27T02:09:00.833Z,6.10
2022-12-27T02:11:48.493Z,8.13
2022-12-27T02:14:15.807Z,7.85
2022-12-27T02:16:42.158Z,7.28
2022-12-27T02:19:14.166Z,9.10
2022-12-27T02:21:59.181Z,8.02
2022-12-27T02:24:25.455Z,10.60
2022-12-27T02:27:01.986Z,8.70
2022-12-27T02:29:28.238Z,8.77
2022-12-27T02:32:05.541Z,6.15
2022-12-27T02:34:39.090Z,8.73
2022-12-27T02:37:09.461Z,5.82
2022-12-27T02:39:39.221Z,3.10
2022-12-27T02:42:25.020Z,4.63
2022-12-27T02:45:09.688Z,10.13
2022-12-27T02:47:55.642Z,4.18
2022-12-27T02:50:40.715Z,8.32
2022-12-27T02:53:12.608Z,5.10
2022-12-27T02:56:04.883Z,5.25
2022-12-27T02:58:36.045Z,10.35
2022-12-27T03:01:35.343Z,7.63
2022-12-27T03:04:11.590Z,8.95
2022-12-27T03:06:45.178Z,11.32
2022-12-27T03:09:34.665Z,5.70
2022-12-27T03:12:23.489Z,6.50
2022-12-27T03:15:11.296Z,5.50
2022-12-27T03:17:42.362Z,9.15
2022-12-27T03:20:31.562Z,3.15
2022-12-27T03:23:18.502Z,5.40
2022-12-27T03:25:46.960Z,9.95
2022-12-27T03:28:34.689Z,5.05
2022-12-27T03:31:22.326Z,9.45
2022-12-27T03:33:49.901Z,5.32
2022-12-27T03:36:42.349Z,8.65
2022-12-27T03:39:21.066Z,7.15
2022-12-27T03:42:14.801Z,8.18
2022-12-27T03:44:41.153Z,5.65
2022-12-27T03:47:12.533Z,9.88
2022-12-27T03:49:57.851Z,7.20
2022-12-27T03:52:36.492Z,7.03
2022-12-27T03:55:03.163Z,6.95
2022-12-27T03:57:29.624Z,8.52
2022-12-27T03:59:56.101Z,11.00
2022-12-27T04:02:22.725Z,7.90
2022-12-27T04:04:49.481Z,6.88
2022-12-27T04:07:16.198Z,7.75
2022-12-27T04:10:01.367Z,2.75
2022-12-27T04:12:46.477Z,11.85
2022-12-27T04:15:31.661Z,7.72
2022-12-27T04:18:16.889Z,6.55
2022-12-27T04:21:01.743Z,9.73
2022-12-27T04:23:46.831Z,11.00
2022-12-27T04:26:32.314Z,4.95
2022-12-27T04:29:17.507Z,8.40
2022-12-27T04:32:02.731Z,9.88
2022-12-27T04:34:44.328Z,10.70
2022-12-27T04:37:15.061Z,4.13
2022-12-27T04:39:41.874Z,13.98
2022-12-27T04:42:28.018Z,6.75
2022-12-27T04:45:15.390Z,5.32
2022-12-27T04:48:00.939Z,9.38
2022-12-27T04:50:47.845Z,11.73
2022-12-27T04:53:34.311Z,10.95
2022-12-27T04:56:01.026Z,8.70
2022-12-27T04:58:27.407Z,11.50
2022-12-27T05:01:14.429Z,6.57
2022-12-27T05:03:41.513Z,11.05
2022-12-27T05:06:07.936Z,7.78
2022-12-27T05:08:54.285Z,10.20
2022-12-27T05:11:39.508Z,9.07
2022-12-27T05:14:08.392Z,8.63
2022-12-27T05:16:36.436Z,12.50
2022-12-27T05:19:04.523Z,7.38
2022-12-27T05:21:30.798Z,7.78
2022-12-27T05:24:15.902Z,5.85
2022-12-27T05:26:42.201Z,9.40
2022-12-27T05:29:08.588Z,7.38
2022-12-27T05:31:35.031Z,7.72
2022-12-27T05:34:01.453Z,10.75
2022-12-27T05:36:27.841Z,9.52
2022-12-27T05:38:54.117Z,9.40
2022-12-27T05:41:20.496Z,7.78
2022-12-27T05:43:46.850Z,7.75
2022-12-27T05:46:17.840Z,8.85
2022-12-27T05:48:44.146Z,11.73
2022-12-27T05:51:12.339Z,9.40
2022-12-27T05:53:38.927Z,7.55
2022-12-27T05:56:05.308Z,10.43
2022-12-27T05:58:32.008Z,7.65
2022-12-27T06:00:58.891Z,11.70
2022-12-27T06:03:25.397Z,10.90
2022-12-27T06:05:51.815Z,6.28
2022-12-27T06:08:18.183Z,8.45
2022-12-27T06:10:44.513Z,8.65
2022-12-27T06:13:10.872Z,5.57
2022-12-27T06:15:37.226Z,11.20
2022-12-27T06:18:04.001Z,9.38
2022-12-27T06:20:30.643Z,7.65
2022-12-27T06:22:58.881Z,5.13
2022-12-27T06:25:25.247Z,8.93
2022-12-27T06:27:51.562Z,9.90
2022-12-27T06:30:17.845Z,9.38
2022-12-27T06:32:44.215Z,8.15
2022-12-27T06:35:11.207Z,10.80
2022-12-27T06:37:39.151Z,10.02
2022-12-27T06:40:05.808Z,12.30
2022-12-27T06:42:32.127Z,14.35
2022-12-27T06:44:58.454Z,13.57
2022-12-27T06:47:24.768Z,12.32
2022-12-27T06:49:51.043Z,10.13
2022-12-27T06:52:17.412Z,14.20
2022-12-27T06:54:43.716Z,8.30
2022-12-27T06:57:10.001Z,12.20
2022-12-27T06:59:36.406Z,7.93
2022-12-27T07:02:02.821Z,10.75
2022-12-27T07:04:29.281Z,8.23
2022-12-27T07:06:55.599Z,12.70
2022-12-27T07:09:21.891Z,10.85
2022-12-27T07:11:48.520Z,13.55
2022-12-27T07:14:14.819Z,9.68
2022-12-27T07:16:41.219Z,8.50
2022-12-27T07:19:09.703Z,10.88
2022-12-27T07:21:36.643Z,12.68
2022-12-27T07:24:03.045Z,11.90
2022-12-27T07:26:30.745Z,10.43
2022-12-27T07:28:58.709Z,12.10
2022-12-27T07:31:26.673Z,10.13
2022-12-27T07:33:53.255Z,12.07
2022-12-27T07:36:21.415Z,12.35
2022-12-27T07:38:48.337Z,17.30
2022-12-27T07:41:15.243Z,14.25
2022-12-27T07:43:44.470Z,16.95
2022-12-27T07:46:15.995Z,21.10
2022-12-27T07:48:42.870Z,14.82
2022-12-27T07:51:09.739Z,15.38
2022-12-27T07:53:36.390Z,12.93
2022-12-27T07:56:10.061Z,11.20
2022-12-27T07:58:40.723Z,14.38
2022-12-27T08:01:07.878Z,13.70
2022-12-27T08:03:36.042Z,12.70
2022-12-27T08:06:03.326Z,10.82
2022-12-27T08:08:36.764Z,14.15
2022-12-27T08:11:05.695Z,11.32
2022-12-27T08:13:32.488Z,14.40
2022-12-27T08:15:59.031Z,8.95
2022-12-27T08:18:25.480Z,9.77
2022-12-27T08:20:51.881Z,12.55
2022-12-27T08:23:18.315Z,11.98
2022-12-27T08:25:48.975Z,11.18
2022-12-27T08:28:17.065Z,12.07
2022-12-27T08:30:44.441Z,10.15
2022-12-27T08:33:11.418Z,15.32
2022-12-27T08:35:55.124Z,11.02
2022-12-27T08:38:22.201Z,9.05
2022-12-27T08:40:48.691Z,16.55
2022-12-27T08:43:15.102Z,13.23
2022-12-27T08:45:42.316Z,12.20
2022-12-27T08:48:10.457Z,15.30
2022-12-27T08:50:37.317Z,14.13
2022-12-27T08:53:06.472Z,12.85
2022-12-27T08:55:35.550Z,14.65
2022-12-27T08:58:03.905Z,13.23
2022-12-27T09:00:30.846Z,8.05
2022-12-27T09:02:57.817Z,9.43
2022-12-27T09:05:25.143Z,8.55
2022-12-27T09:07:52.196Z,9.15
2022-12-27T09:10:19.842Z,6.90
2022-12-27T09:12:46.286Z,8.02
2022-12-27T09:15:12.970Z,9.07
2022-12-27T09:17:40.125Z,6.38
2022-12-27T09:20:06.885Z,8.60
2022-12-27T09:22:33.408Z,6.45
2022-12-27T09:24:59.828Z,8.38
2022-12-27T09:27:26.423Z,8.23
2022-12-27T09:29:57.101Z,8.55
2022-12-27T09:32:27.372Z,5.32
2022-12-27T09:34:54.598Z,6.18
2022-12-27T09:37:20.958Z,7.32
2022-12-27T09:39:47.352Z,9.45
2022-12-27T09:45:25.953Z,7.18
2022-12-27T09:47:55.490Z,6.70
2022-12-27T09:50:27.568Z,8.40
2022-12-27T09:52:58.671Z,13.15
2022-12-27T09:55:37.769Z,5.70
2022-12-27T09:58:20.293Z,4.40
2022-12-27T10:00:49.365Z,6.05
2022-12-27T10:03:15.756Z,8.70
2022-12-27T10:05:45.986Z,9.15
2022-12-27T10:08:28.049Z,12.63
2022-12-27T10:11:07.606Z,10.02
2022-12-27T10:13:48.745Z,10.18
2022-12-27T10:16:31.352Z,11.80
2022-12-27T10:19:17.200Z,7.65
2022-12-27T10:21:51.587Z,10.30
2022-12-27T10:24:21.831Z,10.48
2022-12-27T10:26:49.261Z,12.85
2022-12-27T10:29:16.526Z,13.15
2022-12-27T10:31:43.637Z,9.38
2022-12-27T10:34:14.043Z,9.98
2022-12-27T10:36:42.100Z,9.73
2022-12-27T10:39:19.235Z,9.05
2022-12-27T10:42:05.286Z,11.30
2022-12-27T10:44:32.478Z,10.35
2022-12-27T10:46:59.907Z,6.25
2022-12-27T10:49:28.383Z,6.28
2022-12-27T10:52:06.571Z,7.40
2022-12-27T10:54:33.222Z,8.55
2022-12-27T10:57:17.429Z,8.77
2022-12-27T10:59:44.178Z,5.22
2022-12-27T11:02:18.975Z,7.82
2022-12-27T11:04:58.961Z,13.55
2022-12-27T11:07:29.456Z,9.13
2022-12-27T11:10:07.762Z,9.77
2022-12-27T11:12:36.166Z,9.40
2022-12-27T11:15:13.705Z,7.72
2022-12-27T11:17:48.765Z,7.53
2022-12-27T11:20:18.330Z,7.32
2022-12-27T11:22:53.152Z,8.27
2022-12-27T11:25:19.939Z,7.28
2022-12-27T11:27:50.954Z,8.15
2022-12-27T11:30:43.884Z,8.05
2022-12-27T11:33:21.115Z,7.15
2022-12-27T11:35:52.644Z,6.97
2022-12-27T11:38:27.179Z,9.18
2022-12-27T11:41:00.388Z,7.35
2022-12-27T11:43:28.367Z,11.27
2022-12-27T11:45:55.841Z,10.20
2022-12-27T11:48:27.584Z,7.53
2022-12-27T11:51:03.682Z,10.15
2022-12-27T11:53:55.843Z,8.68
2022-12-27T11:56:37.666Z,6.82
2022-12-27T11:59:16.282Z,10.65
2022-12-27T12:02:19.109Z,5.45
2022-12-27T12:04:51.931Z,9.73
2022-12-27T12:07:18.468Z,7.60
2022-12-27T12:09:44.866Z,12.32
2022-12-27T12:12:17.382Z,9.98
2022-12-27T12:14:59.169Z,8.38
2022-12-27T12:17:31.116Z,12.27
2022-12-27T12:20:07.278Z,10.30
2022-12-27T12:22:33.731Z,9.23
2022-12-27T12:24:59.997Z,10.77
2022-12-27T12:27:29.292Z,6.97
2022-12-27T12:30:15.559Z,9.38
2022-12-27T12:32:50.713Z,7.30
2022-12-27T12:35:36.479Z,10.60
2022-12-27T12:38:03.702Z,10.25
2022-12-27T12:40:39.678Z,9.05
2022-12-27T12:43:25.253Z,12.52
2022-12-27T12:46:10.665Z,9.20
2022-12-27T12:48:55.743Z,10.25
2022-12-27T12:51:22.364Z,7.90
2022-12-27T12:53:48.732Z,9.20
2022-12-27T12:56:21.143Z,6.30
2022-12-27T12:58:50.658Z,7.75
2022-12-27T13:01:34.450Z,8.07
2022-12-27T13:04:07.114Z,5.43
2022-12-27T13:06:33.789Z,6.28
2022-12-27T13:09:12.572Z,8.13
2022-12-27T13:11:47.601Z,6.55
2022-12-27T13:14:29.326Z,6.63
2022-12-27T13:16:55.682Z,6.43
2022-12-27T13:19:38.024Z,8.57
2022-12-27T13:22:04.494Z,11.25
2022-12-27T13:24:54.915Z,18.75
2022-12-27T13:27:24.368Z,5.57
2022-12-27T13:30:09.704Z,6.47
2022-12-27T13:32:36.238Z,7.10
2022-12-27T13:35:24.301Z,6.68
2022-12-27T13:38:09.453Z,8.30
2022-12-27T13:40:38.959Z,7.50
2022-12-27T13:43:12.278Z,8.77
2022-12-27T13:45:46.465Z,6.55
2022-12-27T13:48:25.021Z,6.72
2022-12-27T13:51:04.555Z,7.47
2022-12-27T13:53:40.603Z,7.35
2022-12-27T13:56:51.824Z,7.68
2022-12-27T13:59:06.018Z,10.05
2022-12-27T14:01:32.672Z,10.43
2022-12-27T14:04:17.778Z,6.43
2022-12-27T14:07:08.818Z,8.48
2022-12-27T14:09:50.687Z,7.93
2022-12-27T14:12:36.198Z,9.32
2022-12-27T14:15:04.973Z,5.40
2022-12-27T14:17:32.245Z,8.85
2022-12-27T14:20:19.233Z,7.07
2022-12-27T14:23:15.029Z,9.35
2022-12-27T14:25:47.374Z,11.45
2022-12-27T14:28:21.789Z,9.98
2022-12-27T14:30:54.219Z,10.32
2022-12-27T14:33:39.106Z,9.93
2022-12-27T14:36:05.655Z,9.73
2022-12-27T14:38:47.395Z,6.60
2022-12-27T14:41:32.124Z,7.35
2022-12-27T14:44:17.342Z,7.43
2022-12-27T14:46:53.348Z,11.35
2022-12-27T14:49:41.315Z,5.38
2022-12-27T14:52:26.505Z,7.05
2022-12-27T14:55:08.387Z,10.50
2022-12-27T14:57:51.490Z,5.82
2022-12-27T15:00:19.624Z,10.73
2022-12-27T15:02:52.861Z,7.40
2022-12-27T15:05:43.300Z,8.95
2022-12-27T15:08:25.436Z,7.68
2022-12-27T15:10:51.680Z,6.65
2022-12-27T15:13:18.991Z,10.27
2022-12-27T15:16:18.064Z,11.23
2022-12-27T15:18:51.594Z,7.82
2022-12-27T15:21:39.880Z,7.57
2022-12-27T15:24:23.123Z,10.77
2022-12-27T15:27:00.507Z,11.48
2022-12-27T15:29:39.134Z,9.43
2022-12-27T15:32:12.884Z,8.85
2022-12-27T15:34:55.027Z,7.75
2022-12-27T15:37:40.180Z,10.57
2022-12-27T15:40:25.187Z,8.02
2022-12-27T15:43:06.895Z,7.68
2022-12-27T15:45:48.570Z,10.05
2022-12-27T15:48:27.985Z,9.15
2022-12-27T15:50:58.542Z,14.15
2022-12-27T15:53:43.691Z,10.38
2022-12-27T15:56:11.104Z,10.05
2022-12-27T15:58:37.648Z,8.45
2022-12-27T16:01:23.630Z,12.80
2022-12-27T16:03:52.501Z,10.73
2022-12-27T16:06:45.275Z,11.00
2022-12-27T16:09:20.745Z,10.43
2022-12-27T16:11:58.358Z,11.50
2022-12-27T16:14:28.884Z,11.50
2022-12-27T16:16:58.632Z,11.93
2022-12-27T16:19:38.488Z,15.70
2022-12-27T16:22:18.169Z,9.15
2022-12-27T16:24:44.571Z,11.82
2022-12-27T16:27:20.941Z,13.07
2022-12-27T16:29:47.285Z,13.18
2022-12-27T16:32:19.330Z,12.75
2022-12-27T16:34:46.758Z,13.70
2022-12-27T16:37:24.654Z,10.45
2022-12-27T16:40:09.576Z,19.00
2022-12-27T16:42:54.267Z,14.35
2022-12-27T16:45:26.731Z,13.55
2022-12-27T16:48:02.511Z,12.25
2022-12-27T16:50:28.800Z,10.82
2022-12-27T16:53:01.647Z,12.52
2022-12-27T16:55:27.926Z,11.35
2022-12-27T16:58:14.219Z,12.48
2022-12-27T17:00:56.891Z,16.15
2022-12-27T17:03:23.193Z,12.48
2022-12-27T17:06:29.881Z,11.38
2022-12-27T17:08:36.572Z,10.95
2022-12-27T17:11:04.576Z,14.30
2022-12-27T17:13:36.995Z,14.30
2022-12-27T17:16:12.649Z,12.23
2022-12-27T17:18:49.418Z,12.60
2022-12-27T17:21:23.358Z,13.52
2022-12-27T17:23:56.000Z,14.43
2022-12-27T17:26:22.279Z,16.00
2022-12-27T17:28:55.247Z,8.93
2022-12-27T17:31:33.854Z,18.90
2022-12-27T17:34:09.031Z,15.85
2022-12-27T17:36:35.371Z,12.57
2022-12-27T17:39:01.621Z,11.27
2022-12-27T17:41:49.714Z,11.90
2022-12-27T17:44:40.300Z,14.48
2022-12-27T17:47:21.799Z,14.50
2022-12-27T17:49:48.738Z,14.88
2022-12-27T17:52:35.015Z,14.02
2022-12-27T17:55:46.431Z,13.98
2022-12-27T17:58:16.362Z,13.48
2022-12-27T18:00:54.893Z,13.70
2022-12-27T18:03:22.266Z,11.75
2022-12-27T18:05:49.465Z,15.35
2022-12-27T18:08:24.469Z,15.10
2022-12-27T18:10:50.946Z,11.98
2022-12-27T18:13:18.761Z,14.07
2022-12-27T18:15:46.950Z,15.32
2022-12-27T18:18:18.781Z,14.05
2022-12-27T18:20:45.067Z,12.85
2022-12-27T18:23:11.832Z,22.88
2022-12-27T18:25:40.928Z,23.88
2022-12-27T18:28:18.157Z,60.17
2022-12-27T18:30:51.073Z,41.88
2022-12-27T18:33:17.658Z,30.10
2022-12-27T18:35:46.906Z,21.38
2022-12-27T18:38:16.950Z,21.38
2022-12-27T18:40:43.646Z,19.98
2022-12-27T18:43:13.316Z,14.43
2022-12-27T18:45:39.681Z,19.17
2022-12-27T18:48:09.311Z,17.35
2022-12-27T18:50:35.645Z,18.33
2022-12-27T18:53:04.169Z,13.88
2022-12-27T18:55:32.002Z,16.88
2022-12-27T18:58:24.880Z,18.33
2022-12-27T19:01:26.587Z,15.63
2022-12-27T19:04:11.974Z,19.70
2022-12-27T19:06:38.290Z,18.20
2022-12-27T19:09:06.030Z,21.90
2022-12-27T19:11:36.337Z,16.58
2022-12-27T19:14:04.910Z,21.33
2022-12-27T19:16:34.229Z,23.60
2022-12-27T19:19:19.499Z,24.13
2022-12-27T19:21:45.948Z,33.90
2022-12-27T19:24:30.407Z,27.95
2022-12-27T19:26:57.623Z,23.65
2022-12-27T19:29:27.021Z,26.50
2022-12-27T19:31:58.325Z,25.48
2022-12-27T19:34:25.893Z,23.13
2022-12-27T19:36:53.161Z,22.38
2022-12-27T19:39:21.041Z,23.60
2022-12-27T19:41:48.321Z,25.25
2022-12-27T19:44:14.904Z,25.55
2022-12-27T19:46:41.283Z,23.88
2022-12-27T19:49:40.203Z,21.45
2022-12-27T19:51:57.800Z,24.83
2022-12-27T19:54:27.775Z,27.95
2022-12-27T19:56:54.961Z,26.38
2022-12-27T19:59:22.581Z,21.63
2022-12-27T20:01:49.405Z,24.80
2022-12-27T20:04:16.557Z,25.60
2022-12-27T20:06:43.561Z,32.97
2022-12-27T20:09:12.789Z,21.98
2022-12-27T20:11:39.056Z,24.27
2022-12-27T20:14:05.389Z,32.10
2022-12-27T20:16:31.784Z,26.98
2022-12-27T20:18:58.132Z,27.90
2022-12-27T20:21:24.507Z,29.30
2022-12-27T20:23:51.023Z,27.92
2022-12-27T20:26:19.923Z,23.50
2022-12-27T20:28:46.860Z,22.30
2022-12-27T20:31:14.059Z,20.92
2022-12-27T20:33:40.513Z,18.98
2022-12-27T20:36:07.663Z,20.40
2022-12-27T20:38:34.106Z,17.08
2022-12-27T20:41:08.533Z,19.55
2022-12-27T20:43:35.390Z,21.65
2022-12-27T20:46:05.956Z,26.05
2022-12-27T20:48:32.355Z,25.95
2022-12-27T20:50:58.653Z,24.33
2022-12-27T20:53:27.766Z,20.60
2022-12-27T20:55:57.859Z,19.13
2022-12-27T20:58:24.158Z,23.10
2022-12-27T21:00:50.417Z,30.40
2022-12-27T21:03:16.876Z,20.60
2022-12-27T21:05:43.266Z,26.48
2022-12-27T21:08:09.631Z,22.17
2022-12-27T21:10:35.977Z,26.27
2022-12-27T21:13:02.404Z,19.83
2022-12-27T21:15:31.129Z,23.85
2022-12-27T21:17:57.694Z,20.85
2022-12-27T21:20:23.995Z,23.77
2022-12-27T21:22:50.368Z,19.65
2022-12-27T21:25:16.746Z,20.60
2022-12-27T21:27:43.214Z,22.33
2022-12-27T21:30:10.667Z,22.27
2022-12-27T21:32:37.025Z,13.85
2022-12-27T21:35:03.341Z,15.95
2022-12-27T21:37:29.807Z,19.83
2022-12-27T21:39:56.195Z,15.50
2022-12-27T21:42:22.559Z,16.67
2022-12-27T21:44:48.962Z,17.65
2022-12-27T21:47:15.621Z,20.08
2022-12-27T21:49:41.963Z,10.98
2022-12-27T21:52:08.425Z,21.63
2022-12-27T21:54:36.753Z,12.48
2022-12-27T21:57:03.418Z,12.52
2022-12-27T21:59:29.819Z,13.38
2022-12-27T22:01:57.453Z,15.55
2022-12-27T22:04:23.805Z,15.82
2022-12-27T22:06:50.226Z,12.45
2022-12-27T22:09:16.584Z,12.23
2022-12-27T22:11:42.984Z,12.35
2022-12-27T22:14:09.389Z,10.25
2022-12-27T22:16:36.906Z,17.00
2022-12-27T22:19:12.879Z,17.02
2022-12-27T22:21:39.739Z,10.13
2022-12-27T22:24:06.157Z,13.85
2022-12-27T22:26:38.927Z,10.80
2022-12-27T22:29:05.737Z,16.10
2022-12-27T22:31:35.252Z,16.88
2022-12-27T22:34:03.011Z,16.20
2022-12-27T22:36:29.827Z,12.68
2022-12-27T22:38:56.594Z,13.05
2022-12-27T22:41:25.996Z,15.48
2022-12-27T22:43:56.564Z,13.75
2022-12-27T22:46:23.556Z,12.98
2022-12-27T22:48:51.111Z,17.08
2022-12-27T22:51:19.760Z,18.38
2022-12-27T22:53:46.365Z,11.80
2022-12-27T22:56:17.208Z,16.25
2022-12-27T22:58:43.736Z,15.85
2022-12-27T23:01:11.051Z,12.63
2022-12-27T23:03:37.391Z,11.35
2022-12-27T23:06:03.767Z,18.00
2022-12-27T23:08:30.197Z,15.88
2022-12-27T23:11:01.180Z,17.38
2022-12-27T23:13:27.515Z,17.15
2022-12-27T23:15:58.075Z,19.42
2022-12-27T23:18:24.589Z,17.30
2022-12-27T23:21:20.324Z,19.73
2022-12-27T23:23:37.318Z,19.10
2022-12-27T23:26:05.111Z,18.35
2022-12-27T23:28:31.523Z,20.40
2022-12-27T23:30:57.896Z,14.15
2022-12-27T23:33:24.192Z,21.02
2022-12-27T23:35:50.528Z,21.20
2022-12-27T23:38:16.790Z,15.60
2022-12-27T23:40:43.041Z,16.13
2022-12-27T23:43:41.941Z,20.10
2022-12-27T23:45:55.609Z,18.73
2022-12-27T23:48:21.965Z,15.43
2022-12-27T23:50:48.359Z,16.50
2022-12-27T23:53:14.740Z,21.08
2022-12-27T23:55:41.022Z,19.42
2022-12-27T23:58:07.360Z,22.67
